VJT8369 EPWA-LGIR
Flight info
| Callsign | VJT8369 |
|---|---|
| Flight time | N/A |
| Altitude | 39000 |
| Route | EVINA DCT KOTEK DCT KEKED DCT VERIG DCT LOMOS DCT NIKTI DCT KOROS DCT NEVRA UT514 GIVIS T514 XAVIS |
| Aircraft | CL60/M-SADE3FGHIJ3J4J7P2RWXY/HB1D1 |
Departure
| Time | N/A |
|---|---|
| Airport | Warsaw Chopin Airport (EPWA) |
Arrival
| Time | 2026-04-30 19:46 |
|---|---|
| Airport | Heraklion International Nikos Kazantzakis Airport (LGIR) |
| Time | Latitude | Longitude | Altitude | Speed | Heading |
|---|---|---|---|---|---|
| 2026-04-30 17:39 | 50.11412 | 20.52102 | 39350 ft | 463 kts | 158° |
| 2026-04-30 17:42 | 49.81074 | 20.67197 | 39355 ft | 457 kts | 159° |
| 2026-04-30 17:43 | 49.66008 | 20.74618 | 39351 ft | 456 kts | 159° |
| 2026-04-30 17:44 | 49.47908 | 20.83471 | 39335 ft | 456 kts | 159° |
| 2026-04-30 17:47 | 49.20838 | 20.96583 | 39327 ft | 454 kts | 160° |
| 2026-04-30 17:48 | 49.08781 | 21.02378 | 39352 ft | 465 kts | 160° |
| 2026-04-30 17:48 | 48.99358 | 21.06887 | 39348 ft | 482 kts | 160° |
| 2026-04-30 17:50 | 48.73453 | 21.19180 | 39349 ft | 488 kts | 160° |
| 2026-04-30 17:52 | 48.54045 | 21.28305 | 39344 ft | 489 kts | 160° |
| 2026-04-30 17:54 | 48.24247 | 21.38335 | 39333 ft | 489 kts | 166° |
| 2026-04-30 17:56 | 47.97753 | 21.46905 | 39324 ft | 489 kts | 166° |
| 2026-04-30 17:58 | 47.77857 | 21.53289 | 39315 ft | 488 kts | 166° |
| 2026-04-30 18:00 | 47.51396 | 21.61706 | 39321 ft | 488 kts | 167° |
| 2026-04-30 18:01 | 47.34844 | 21.66927 | 39317 ft | 487 kts | 167° |
| 2026-04-30 18:02 | 47.15102 | 21.73417 | 39313 ft | 486 kts | 161° |
| 2026-04-30 18:04 | 46.95924 | 21.82746 | 39310 ft | 484 kts | 162° |
| 2026-04-30 18:06 | 46.70396 | 21.95018 | 39303 ft | 484 kts | 162° |
| 2026-04-30 18:08 | 46.48034 | 22.05658 | 39287 ft | 485 kts | 162° |
| 2026-04-30 18:10 | 46.22344 | 22.17763 | 39280 ft | 487 kts | 162° |
| 2026-04-30 18:11 | 45.99868 | 22.28255 | 39272 ft | 486 kts | 163° |
| 2026-04-30 18:13 | 45.83808 | 22.35698 | 39255 ft | 486 kts | 163° |
| 2026-04-30 18:14 | 45.67766 | 22.43087 | 39244 ft | 486 kts | 163° |
| 2026-04-30 18:15 | 45.48526 | 22.51891 | 39260 ft | 485 kts | 163° |
| 2026-04-30 18:16 | 45.35663 | 22.57742 | 39216 ft | 485 kts | 163° |
| 2026-04-30 18:17 | 45.29238 | 22.60654 | 39196 ft | 485 kts | 163° |
| 2026-04-30 18:18 | 45.19647 | 22.64988 | 39198 ft | 484 kts | 163° |
| 2026-04-30 18:18 | 45.13232 | 22.67878 | 39226 ft | 483 kts | 165° |
| 2026-04-30 18:19 | 45.06809 | 22.70765 | 39253 ft | 483 kts | 165° |
| 2026-04-30 18:19 | 45.00415 | 22.73632 | 39292 ft | 483 kts | 164° |
| 2026-04-30 18:20 | 44.94044 | 22.76482 | 39299 ft | 483 kts | 165° |
| 2026-04-30 18:20 | 44.87653 | 22.79335 | 39312 ft | 483 kts | 165° |
| 2026-04-30 18:21 | 44.81253 | 22.82185 | 39321 ft | 482 kts | 165° |
| 2026-04-30 18:21 | 44.74831 | 22.85038 | 39334 ft | 483 kts | 165° |
| 2026-04-30 18:22 | 44.68471 | 22.87857 | 39325 ft | 483 kts | 165° |
| 2026-04-30 18:22 | 44.58830 | 22.92118 | 39330 ft | 484 kts | 165° |
| 2026-04-30 18:23 | 44.52452 | 22.94930 | 39332 ft | 483 kts | 165° |
| 2026-04-30 18:23 | 44.46051 | 22.97744 | 39329 ft | 483 kts | 165° |
| 2026-04-30 18:24 | 44.36465 | 23.01947 | 39339 ft | 482 kts | 165° |
| 2026-04-30 18:25 | 44.30071 | 23.04742 | 39339 ft | 483 kts | 166° |
| 2026-04-30 18:25 | 44.20458 | 23.08933 | 39346 ft | 484 kts | 166° |
| 2026-04-30 18:26 | 44.10827 | 23.13118 | 39349 ft | 484 kts | 166° |
| 2026-04-30 18:27 | 44.01253 | 23.17264 | 39355 ft | 483 kts | 166° |
| 2026-04-30 18:28 | 43.91645 | 23.21411 | 39353 ft | 481 kts | 166° |
| 2026-04-30 18:28 | 43.82070 | 23.25504 | 39342 ft | 481 kts | 167° |
| 2026-04-30 18:29 | 43.69162 | 23.30600 | 39329 ft | 481 kts | 168° |
| 2026-04-30 18:30 | 43.56307 | 23.35653 | 39336 ft | 480 kts | 168° |
| 2026-04-30 18:31 | 43.46679 | 23.39424 | 39325 ft | 480 kts | 168° |
| 2026-04-30 18:32 | 43.37066 | 23.43177 | 39326 ft | 480 kts | 168° |
| 2026-04-30 18:33 | 43.27442 | 23.46924 | 39319 ft | 479 kts | 168° |
| 2026-04-30 18:33 | 43.17867 | 23.50639 | 39281 ft | 479 kts | 168° |
| 2026-04-30 18:34 | 43.08249 | 23.54359 | 39247 ft | 479 kts | 169° |
| 2026-04-30 18:35 | 43.01824 | 23.56837 | 39232 ft | 479 kts | 168° |
| 2026-04-30 18:35 | 42.95396 | 23.59312 | 39222 ft | 478 kts | 169° |
| 2026-04-30 18:36 | 42.85829 | 23.62984 | 39233 ft | 478 kts | 168° |
| 2026-04-30 18:37 | 42.76210 | 23.66665 | 39248 ft | 478 kts | 169° |
| 2026-04-30 18:37 | 42.69792 | 23.69114 | 39233 ft | 478 kts | 170° |
| 2026-04-30 18:38 | 42.63419 | 23.71541 | 39227 ft | 478 kts | 169° |
| 2026-04-30 18:38 | 42.56985 | 23.73986 | 39219 ft | 478 kts | 170° |
| 2026-04-30 18:39 | 42.50583 | 23.76413 | 39224 ft | 478 kts | 170° |
| 2026-04-30 18:39 | 42.44191 | 23.78832 | 39202 ft | 478 kts | 170° |
| 2026-04-30 18:40 | 42.37783 | 23.81251 | 39196 ft | 478 kts | 170° |
| 2026-04-30 18:40 | 42.31365 | 23.83668 | 39171 ft | 479 kts | 170° |
| 2026-04-30 18:41 | 42.24916 | 23.86093 | 39182 ft | 480 kts | 170° |
| 2026-04-30 18:41 | 42.18517 | 23.88493 | 39166 ft | 480 kts | 170° |
| 2026-04-30 18:42 | 42.12050 | 23.90915 | 39172 ft | 480 kts | 170° |
| 2026-04-30 18:42 | 42.02422 | 23.94509 | 39164 ft | 481 kts | 170° |
| 2026-04-30 18:45 | 41.66912 | 24.07671 | 39129 ft | 481 kts | 171° |
| 2026-04-30 18:46 | 41.60507 | 24.10029 | 39111 ft | 480 kts | 171° |
| 2026-04-30 18:46 | 41.54063 | 24.12387 | 39115 ft | 480 kts | 172° |
| 2026-04-30 18:47 | 41.47610 | 24.14567 | 39112 ft | 480 kts | 172° |
| 2026-04-30 18:47 | 41.41126 | 24.16742 | 39085 ft | 480 kts | 172° |
| 2026-04-30 18:48 | 41.34643 | 24.18914 | 39114 ft | 480 kts | 172° |
| 2026-04-30 18:48 | 41.28195 | 24.21069 | 39107 ft | 480 kts | 172° |
| 2026-04-30 18:49 | 41.21742 | 24.23222 | 39068 ft | 481 kts | 172° |
| 2026-04-30 18:49 | 41.15287 | 24.25374 | 39104 ft | 478 kts | 172° |
| 2026-04-30 18:50 | 41.08819 | 24.27523 | 39106 ft | 479 kts | 172° |
| 2026-04-30 18:50 | 41.02386 | 24.29657 | 39095 ft | 480 kts | 172° |
| 2026-04-30 18:51 | 40.95903 | 24.31805 | 39101 ft | 479 kts | 172° |
| 2026-04-30 18:51 | 40.89487 | 24.33925 | 39104 ft | 479 kts | 172° |
| 2026-04-30 18:52 | 40.83011 | 24.36062 | 39108 ft | 478 kts | 172° |
| 2026-04-30 18:52 | 40.76576 | 24.38180 | 39105 ft | 478 kts | 172° |
| 2026-04-30 18:53 | 40.70129 | 24.40299 | 39112 ft | 477 kts | 172° |
| 2026-04-30 18:53 | 40.63705 | 24.42406 | 39122 ft | 476 kts | 172° |
| 2026-04-30 18:54 | 40.57296 | 24.44502 | 39103 ft | 477 kts | 172° |
| 2026-04-30 18:54 | 40.50879 | 24.46599 | 39102 ft | 475 kts | 172° |
| 2026-04-30 18:55 | 40.44485 | 24.48683 | 39107 ft | 475 kts | 172° |
| 2026-04-30 18:55 | 40.34856 | 24.51814 | 39089 ft | 473 kts | 172° |
| 2026-04-30 18:56 | 40.25309 | 24.54908 | 39095 ft | 473 kts | 172° |
| 2026-04-30 18:57 | 40.15704 | 24.58013 | 39104 ft | 473 kts | 172° |
| 2026-04-30 18:57 | 40.09305 | 24.60076 | 39089 ft | 473 kts | 172° |
| 2026-04-30 18:58 | 39.99762 | 24.63145 | 39071 ft | 473 kts | 171° |
| 2026-04-30 18:59 | 39.90200 | 24.66212 | 39081 ft | 471 kts | 172° |
| 2026-04-30 19:00 | 39.77511 | 24.70267 | 39068 ft | 470 kts | 172° |
| 2026-04-30 19:01 | 39.64831 | 24.74304 | 39060 ft | 470 kts | 172° |
| 2026-04-30 19:02 | 39.55306 | 24.77327 | 39059 ft | 469 kts | 172° |
| 2026-04-30 19:03 | 39.42633 | 24.81335 | 39053 ft | 469 kts | 171° |
| 2026-04-30 19:04 | 39.29977 | 24.85323 | 39045 ft | 468 kts | 171° |
| 2026-04-30 19:05 | 39.17348 | 24.89287 | 39041 ft | 467 kts | 171° |
| 2026-04-30 19:05 | 39.11000 | 24.90382 | 39038 ft | 458 kts | 185° |
| 2026-04-30 19:06 | 39.04784 | 24.89506 | 39036 ft | 448 kts | 198° |
| 2026-04-30 19:06 | 38.95845 | 24.86134 | 39032 ft | 446 kts | 201° |
| 2026-04-30 19:07 | 38.86918 | 24.82699 | 39026 ft | 447 kts | 202° |
| 2026-04-30 19:08 | 38.75039 | 24.78141 | 39024 ft | 446 kts | 202° |
| 2026-04-30 19:09 | 38.66107 | 24.74724 | 39023 ft | 447 kts | 202° |
| 2026-04-30 19:09 | 38.60140 | 24.72445 | 39017 ft | 447 kts | 202° |
| 2026-04-30 19:10 | 38.48260 | 24.67920 | 39004 ft | 448 kts | 202° |
| 2026-04-30 19:11 | 38.39290 | 24.64514 | 39001 ft | 448 kts | 202° |
| 2026-04-30 19:12 | 38.33354 | 24.62265 | 39000 ft | 448 kts | 202° |
| 2026-04-30 19:12 | 38.27357 | 24.59996 | 38998 ft | 448 kts | 202° |
| 2026-04-30 19:13 | 38.14940 | 24.57832 | 39004 ft | 465 kts | 180° |
| 2026-04-30 19:14 | 38.08564 | 24.59530 | 38999 ft | 475 kts | 167° |
| 2026-04-30 19:14 | 38.02307 | 24.62186 | 38993 ft | 475 kts | 166° |
| 2026-04-30 19:15 | 37.96035 | 24.64840 | 38992 ft | 476 kts | 166° |
| 2026-04-30 19:15 | 37.86597 | 24.68825 | 38991 ft | 476 kts | 166° |
| 2026-04-30 19:16 | 37.80348 | 24.71457 | 38987 ft | 476 kts | 166° |
| 2026-04-30 19:17 | 37.70911 | 24.75423 | 38987 ft | 476 kts | 166° |
| 2026-04-30 19:17 | 37.61518 | 24.79359 | 38984 ft | 476 kts | 166° |
| 2026-04-30 19:18 | 37.52068 | 24.83308 | 38979 ft | 477 kts | 167° |
| 2026-04-30 19:19 | 37.45808 | 24.85918 | 38981 ft | 477 kts | 166° |
| 2026-04-30 19:19 | 37.36341 | 24.89857 | 38981 ft | 478 kts | 167° |
| 2026-04-30 19:20 | 37.30290 | 24.92368 | 38983 ft | 478 kts | 167° |
| 2026-04-30 19:21 | 37.20845 | 24.96281 | 38974 ft | 478 kts | 167° |
| 2026-04-30 19:22 | 37.08241 | 25.01485 | 38993 ft | 478 kts | 167° |
| 2026-04-30 19:23 | 36.89301 | 25.09272 | 37564 ft | 472 kts | 166° |
| 2026-04-30 19:24 | 36.83139 | 25.11796 | 36257 ft | 463 kts | 166° |
| 2026-04-30 19:24 | 36.80103 | 25.13038 | 35782 ft | 458 kts | 166° |
| 2026-04-30 19:24 | 36.74090 | 25.15492 | 34620 ft | 456 kts | 166° |
| 2026-04-30 19:25 | 36.65144 | 25.19137 | 32829 ft | 445 kts | 166° |
| 2026-04-30 19:26 | 36.59310 | 25.21509 | 31681 ft | 437 kts | 166° |
| 2026-04-30 19:26 | 36.53592 | 25.23830 | 30530 ft | 430 kts | 165° |
| 2026-04-30 19:26 | 36.50758 | 25.24980 | 29948 ft | 426 kts | 165° |
| 2026-04-30 19:27 | 36.45222 | 25.27222 | 28845 ft | 417 kts | 165° |
| 2026-04-30 19:27 | 36.39780 | 25.29422 | 27758 ft | 408 kts | 165° |
| 2026-04-30 19:28 | 36.37079 | 25.30513 | 27217 ft | 404 kts | 165° |
| 2026-04-30 19:28 | 36.31788 | 25.32648 | 26150 ft | 396 kts | 165° |
| 2026-04-30 19:29 | 36.26636 | 25.34722 | 25117 ft | 388 kts | 164° |
| 2026-04-30 19:29 | 36.24093 | 25.35746 | 24604 ft | 384 kts | 164° |
| 2026-04-30 19:30 | 36.16598 | 25.38758 | 23108 ft | 372 kts | 164° |
| 2026-04-30 19:30 | 36.11737 | 25.40709 | 22127 ft | 362 kts | 164° |
| 2026-04-30 19:31 | 36.07028 | 25.42608 | 21194 ft | 353 kts | 164° |
| 2026-04-30 19:31 | 36.04709 | 25.43542 | 20730 ft | 349 kts | 163° |
| 2026-04-30 19:31 | 36.00151 | 25.45376 | 19815 ft | 341 kts | 164° |
| 2026-04-30 19:32 | 35.97900 | 25.46278 | 19363 ft | 341 kts | 163° |
| 2026-04-30 19:32 | 35.95643 | 25.47185 | 18915 ft | 340 kts | 164° |
| 2026-04-30 19:32 | 35.93399 | 25.48085 | 18463 ft | 338 kts | 163° |
| 2026-04-30 19:32 | 35.91159 | 25.48984 | 18015 ft | 336 kts | 164° |
| 2026-04-30 19:33 | 35.88963 | 25.49865 | 17572 ft | 334 kts | 164° |
| 2026-04-30 19:33 | 35.86767 | 25.50745 | 17133 ft | 332 kts | 164° |
| 2026-04-30 19:33 | 35.84550 | 25.51634 | 16693 ft | 331 kts | 164° |
| 2026-04-30 19:33 | 35.82368 | 25.52507 | 16249 ft | 330 kts | 164° |
| 2026-04-30 19:34 | 35.80189 | 25.53379 | 15819 ft | 328 kts | 164° |
| 2026-04-30 19:34 | 35.78048 | 25.54236 | 15386 ft | 327 kts | 164° |
| 2026-04-30 19:34 | 35.73743 | 25.55956 | 14519 ft | 324 kts | 163° |
| 2026-04-30 19:35 | 35.71612 | 25.56807 | 14097 ft | 322 kts | 164° |
| 2026-04-30 19:35 | 35.69525 | 25.57782 | 13676 ft | 322 kts | 152° |
| 2026-04-30 19:35 | 35.67707 | 25.59389 | 13237 ft | 323 kts | 141° |
| 2026-04-30 19:35 | 35.65966 | 25.61119 | 12809 ft | 321 kts | 142° |
| 2026-04-30 19:36 | 35.64225 | 25.62834 | 12380 ft | 319 kts | 142° |
| 2026-04-30 19:36 | 35.62514 | 25.64520 | 11968 ft | 317 kts | 142° |
| 2026-04-30 19:36 | 35.58649 | 25.66583 | 11130 ft | 300 kts | 188° |
| 2026-04-30 19:37 | 35.56766 | 25.65732 | 10786 ft | 284 kts | 221° |
| 2026-04-30 19:37 | 35.55618 | 25.63901 | 10501 ft | 267 kts | 249° |
| 2026-04-30 19:37 | 35.54894 | 25.61839 | 10286 ft | 259 kts | 250° |
| 2026-04-30 19:37 | 35.54176 | 25.59839 | 9974 ft | 257 kts | 249° |
| 2026-04-30 19:38 | 35.53438 | 25.57860 | 9727 ft | 251 kts | 249° |
| 2026-04-30 19:38 | 35.52689 | 25.55931 | 9355 ft | 255 kts | 248° |
| 2026-04-30 19:38 | 35.51909 | 25.53981 | 8912 ft | 256 kts | 246° |
| 2026-04-30 19:38 | 35.51104 | 25.52038 | 8516 ft | 255 kts | 246° |
| 2026-04-30 19:39 | 35.50272 | 25.50099 | 8114 ft | 255 kts | 245° |
| 2026-04-30 19:39 | 35.49429 | 25.48202 | 7724 ft | 254 kts | 244° |
| 2026-04-30 19:39 | 35.48566 | 25.46320 | 7327 ft | 253 kts | 243° |
| 2026-04-30 19:39 | 35.47686 | 25.44462 | 6937 ft | 252 kts | 242° |
| 2026-04-30 19:40 | 35.46734 | 25.42681 | 6351 ft | 260 kts | 231° |
| 2026-04-30 19:40 | 35.45292 | 25.41355 | 5989 ft | 259 kts | 207° |
| 2026-04-30 19:40 | 35.43547 | 25.40848 | 5569 ft | 262 kts | 183° |
| 2026-04-30 19:40 | 35.41762 | 25.41290 | 5067 ft | 267 kts | 158° |
| 2026-04-30 19:41 | 35.40115 | 25.42356 | 4694 ft | 262 kts | 156° |
| 2026-04-30 19:41 | 35.38391 | 25.42912 | 4283 ft | 256 kts | 179° |
| 2026-04-30 19:41 | 35.36661 | 25.42580 | 3862 ft | 251 kts | 203° |
| 2026-04-30 19:41 | 35.35216 | 25.41465 | 3387 ft | 249 kts | 226° |
| 2026-04-30 19:42 | 35.34240 | 25.39738 | 2895 ft | 245 kts | 246° |
| 2026-04-30 19:42 | 35.33552 | 25.37923 | 2627 ft | 225 kts | 246° |
| 2026-04-30 19:42 | 35.32951 | 25.36298 | 2424 ft | 191 kts | 252° |
| 2026-04-30 19:42 | 35.32805 | 25.34723 | 2321 ft | 187 kts | 272° |
| 2026-04-30 19:43 | 35.32916 | 25.33173 | 2309 ft | 172 kts | 275° |
| 2026-04-30 19:43 | 35.33012 | 25.31856 | 2355 ft | 143 kts | 274° |
| 2026-04-30 19:43 | 35.33093 | 25.30681 | 2152 ft | 132 kts | 274° |
| 2026-04-30 19:44 | 35.33245 | 25.28498 | 1781 ft | 126 kts | 274° |
| 2026-04-30 19:44 | 35.33320 | 25.27428 | 1600 ft | 126 kts | 274° |
| 2026-04-30 19:44 | 35.33394 | 25.26366 | 1409 ft | 125 kts | 274° |
| 2026-04-30 19:44 | 35.33468 | 25.25298 | 1213 ft | 126 kts | 274° |
| 2026-04-30 19:45 | 35.33542 | 25.24229 | 1021 ft | 126 kts | 274° |
| 2026-04-30 19:45 | 35.33614 | 25.23150 | 824 ft | 127 kts | 274° |
| 2026-04-30 19:45 | 35.33688 | 25.22078 | 634 ft | 127 kts | 274° |
| 2026-04-30 19:45 | 35.33766 | 25.20988 | 446 ft | 128 kts | 273° |
| 2026-04-30 19:46 | 35.33843 | 25.19899 | 270 ft | 129 kts | 273° |
| 2026-04-30 19:46 | 35.33921 | 25.18827 | 140 ft | 122 kts | 272° |
| 2026-04-30 19:46 | 35.33980 | 25.17900 | 125 ft | 93 kts | 274° |
| 2026-04-30 19:46 | 35.34021 | 25.17360 | 125 ft | 43 kts | 275° |
| 2026-04-30 19:47 | 35.34012 | 25.17152 | 125 ft | 15 kts | 249° |
| 2026-04-30 19:47 | 35.33996 | 25.17108 | 125 ft | 6 kts | 244° |
| 2026-04-30 19:47 | 35.33971 | 25.17051 | 125 ft | 2 kts | 220° |
| 2026-04-30 19:47 | 35.33945 | 25.17059 | 125 ft | 6 kts | 120° |
| 2026-04-30 19:48 | 35.33936 | 25.17133 | 125 ft | 10 kts | 95° |
| 2026-04-30 19:48 | 35.33928 | 25.17243 | 125 ft | 15 kts | 96° |
| 2026-04-30 19:48 | 35.33919 | 25.17389 | 125 ft | 19 kts | 95° |
| 2026-04-30 19:48 | 35.33908 | 25.17538 | 125 ft | 13 kts | 94° |
| 2026-04-30 19:49 | 35.33899 | 25.17662 | 125 ft | 11 kts | 93° |
| 2026-04-30 19:49 | 35.33861 | 25.17744 | 125 ft | 5 kts | 186° |
| 2026-04-30 19:49 | 35.33846 | 25.17742 | 125 ft | 2 kts | 185° |
| 2026-04-30 19:50 | 35.33817 | 25.17735 | 125 ft | 4 kts | 219° |
| 2026-04-30 19:50 | 35.33812 | 25.17681 | 125 ft | 6 kts | 275° |
| 2026-04-30 19:50 | 35.33812 | 25.17672 | 125 ft | 0 kts | 273° |